Terminal Aerodrome Forecast
Issued by NWS

Home | Current Version | Previous Version | Text Only | Print | Product List | Glossary On
Versions: 1 2 3 4 5 6 7 8 9 10 11 12 13 14 15 16 17 18 19 20 21
016
FTUS46 KSEW 292328
TAFBLI
TAF
KBLI 292328Z 3000/3024 17008KT P6SM VCSH OVC060
      TEMPO 3000/3003 BKN035 BKN050
     FM300300 19008G16KT P6SM VCSH OVC030
     FM300600 18006G15KT P6SM VCSH OVC019
     FM301200 19006KT P6SM VCSH OVC019
     FM302100 30006KT P6SM VCSH BKN045=

USA.gov is the U.S. government's official web portal to all federal, state and local government web resources and services.